sensor_id;sensor_type;location;lat;lon;timestamp;temperature;humidity
10702;DHT22;5402;50.004;8.246;2023-04-29T00:02:18;11.50;99.90
10702;DHT22;5402;50.004;8.246;2023-04-29T00:04:45;11.60;99.90
10702;DHT22;5402;50.004;8.246;2023-04-29T00:07:12;11.50;99.90
10702;DHT22;5402;50.004;8.246;2023-04-29T00:09:40;11.40;99.90
10702;DHT22;5402;50.004;8.246;2023-04-29T00:12:07;11.40;99.90
10702;DHT22;5402;50.004;8.246;2023-04-29T00:14:35;11.50;99.90
10702;DHT22;5402;50.004;8.246;2023-04-29T00:17:02;11.30;99.90
10702;DHT22;5402;50.004;8.246;2023-04-29T00:19:29;11.20;99.90
10702;DHT22;5402;50.004;8.246;2023-04-29T00:21:56;11.20;99.90
10702;DHT22;5402;50.004;8.246;2023-04-29T00:24:24;11.20;99.90
10702;DHT22;5402;50.004;8.246;2023-04-29T00:26:50;11.20;99.90
10702;DHT22;5402;50.004;8.246;2023-04-29T00:29:17;11.30;99.90
10702;DHT22;5402;50.004;8.246;2023-04-29T00:31:46;11.30;99.90
10702;DHT22;5402;50.004;8.246;2023-04-29T00:34:13;11.30;99.90
10702;DHT22;5402;50.004;8.246;2023-04-29T00:36:39;11.30;99.90
10702;DHT22;5402;50.004;8.246;2023-04-29T00:39:06;11.40;99.90
10702;DHT22;5402;50.004;8.246;2023-04-29T00:41:33;11.40;99.90
10702;DHT22;5402;50.004;8.246;2023-04-29T00:44:00;11.30;99.90
10702;DHT22;5402;50.004;8.246;2023-04-29T00:46:27;11.30;99.90
10702;DHT22;5402;50.004;8.246;2023-04-29T00:48:55;11.30;99.90
10702;DHT22;5402;50.004;8.246;2023-04-29T00:51:21;11.40;99.90
10702;DHT22;5402;50.004;8.246;2023-04-29T00:53:49;11.40;99.90
10702;DHT22;5402;50.004;8.246;2023-04-29T00:56:16;11.40;99.90
10702;DHT22;5402;50.004;8.246;2023-04-29T00:58:45;11.40;99.90
10702;DHT22;5402;50.004;8.246;2023-04-29T01:01:15;11.50;99.90
10702;DHT22;5402;50.004;8.246;2023-04-29T01:03:42;11.50;99.90
10702;DHT22;5402;50.004;8.246;2023-04-29T01:06:19;11.50;99.90
10702;DHT22;5402;50.004;8.246;2023-04-29T01:09:01;11.60;99.90
10702;DHT22;5402;50.004;8.246;2023-04-29T01:11:34;11.50;99.90
10702;DHT22;5402;50.004;8.246;2023-04-29T01:14:05;11.50;99.90
10702;DHT22;5402;50.004;8.246;2023-04-29T01:16:36;11.40;99.90
10702;DHT22;5402;50.004;8.246;2023-04-29T01:19:14;11.40;99.90
10702;DHT22;5402;50.004;8.246;2023-04-29T01:21:47;11.40;99.90
10702;DHT22;5402;50.004;8.246;2023-04-29T01:24:16;11.40;99.90
10702;DHT22;5402;50.004;8.246;2023-04-29T01:26:48;11.40;99.90
10702;DHT22;5402;50.004;8.246;2023-04-29T01:29:21;11.40;99.90
10702;DHT22;5402;50.004;8.246;2023-04-29T01:31:57;11.40;99.90
10702;DHT22;5402;50.004;8.246;2023-04-29T01:34:29;11.40;99.90
10702;DHT22;5402;50.004;8.246;2023-04-29T01:37:03;11.30;99.90
10702;DHT22;5402;50.004;8.246;2023-04-29T01:39:40;11.30;99.90
10702;DHT22;5402;50.004;8.246;2023-04-29T01:42:14;11.30;99.90
10702;DHT22;5402;50.004;8.246;2023-04-29T01:44:44;11.20;99.90
10702;DHT22;5402;50.004;8.246;2023-04-29T01:47:13;11.00;99.90
10702;DHT22;5402;50.004;8.246;2023-04-29T01:49:40;11.00;99.90
10702;DHT22;5402;50.004;8.246;2023-04-29T01:52:07;11.00;99.90
10702;DHT22;5402;50.004;8.246;2023-04-29T01:54:35;10.90;99.90
10702;DHT22;5402;50.004;8.246;2023-04-29T01:57:01;10.90;99.90
10702;DHT22;5402;50.004;8.246;2023-04-29T01:59:29;11.00;99.90
10702;DHT22;5402;50.004;8.246;2023-04-29T02:01:55;11.00;99.90
10702;DHT22;5402;50.004;8.246;2023-04-29T02:04:23;11.00;99.90
10702;DHT22;5402;50.004;8.246;2023-04-29T02:06:50;11.10;99.90
10702;DHT22;5402;50.004;8.246;2023-04-29T02:09:17;11.10;99.90
10702;DHT22;5402;50.004;8.246;2023-04-29T02:11:45;11.10;99.90
10702;DHT22;5402;50.004;8.246;2023-04-29T02:14:13;11.10;99.90
10702;DHT22;5402;50.004;8.246;2023-04-29T02:16:42;11.20;99.90
10702;DHT22;5402;50.004;8.246;2023-04-29T02:19:09;11.20;99.90
10702;DHT22;5402;50.004;8.246;2023-04-29T02:21:36;11.20;99.90
10702;DHT22;5402;50.004;8.246;2023-04-29T02:24:04;11.20;99.90
10702;DHT22;5402;50.004;8.246;2023-04-29T02:26:31;11.20;99.90
10702;DHT22;5402;50.004;8.246;2023-04-29T02:28:59;11.20;99.90
10702;DHT22;5402;50.004;8.246;2023-04-29T02:31:28;11.20;99.90
10702;DHT22;5402;50.004;8.246;2023-04-29T02:33:54;11.30;99.90
10702;DHT22;5402;50.004;8.246;2023-04-29T02:36:21;11.30;99.90
10702;DHT22;5402;50.004;8.246;2023-04-29T02:38:49;11.30;99.90
10702;DHT22;5402;50.004;8.246;2023-04-29T02:41:16;11.40;99.90
10702;DHT22;5402;50.004;8.246;2023-04-29T02:43:43;11.40;99.90
10702;DHT22;5402;50.004;8.246;2023-04-29T02:46:11;11.40;99.90
10702;DHT22;5402;50.004;8.246;2023-04-29T02:48:38;11.40;99.90
10702;DHT22;5402;50.004;8.246;2023-04-29T02:51:05;11.40;99.90
10702;DHT22;5402;50.004;8.246;2023-04-29T02:53:32;11.40;99.90
10702;DHT22;5402;50.004;8.246;2023-04-29T02:55:58;11.40;99.90
10702;DHT22;5402;50.004;8.246;2023-04-29T02:58:25;11.40;99.90
10702;DHT22;5402;50.004;8.246;2023-04-29T03:00:52;11.40;99.90
10702;DHT22;5402;50.004;8.246;2023-04-29T03:03:20;11.40;99.90
10702;DHT22;5402;50.004;8.246;2023-04-29T03:05:47;11.40;99.90
10702;DHT22;5402;50.004;8.246;2023-04-29T03:08:14;11.50;99.90
10702;DHT22;5402;50.004;8.246;2023-04-29T03:10:41;11.50;99.90
10702;DHT22;5402;50.004;8.246;2023-04-29T03:13:08;11.50;99.90
10702;DHT22;5402;50.004;8.246;2023-04-29T03:15:34;11.50;99.90
10702;DHT22;5402;50.004;8.246;2023-04-29T03:18:01;11.50;99.90
10702;DHT22;5402;50.004;8.246;2023-04-29T03:20:30;11.50;99.90
10702;DHT22;5402;50.004;8.246;2023-04-29T03:22:57;11.50;99.90
10702;DHT22;5402;50.004;8.246;2023-04-29T03:25:25;11.50;99.90
10702;DHT22;5402;50.004;8.246;2023-04-29T03:27:53;11.50;99.90
10702;DHT22;5402;50.004;8.246;2023-04-29T03:30:19;11.50;99.90
10702;DHT22;5402;50.004;8.246;2023-04-29T03:32:46;11.50;99.90
10702;DHT22;5402;50.004;8.246;2023-04-29T03:35:13;11.50;99.90
10702;DHT22;5402;50.004;8.246;2023-04-29T03:37:41;11.50;99.90
10702;DHT22;5402;50.004;8.246;2023-04-29T03:40:09;11.50;99.90
10702;DHT22;5402;50.004;8.246;2023-04-29T03:42:36;11.50;99.90
10702;DHT22;5402;50.004;8.246;2023-04-29T03:45:04;11.50;99.90
10702;DHT22;5402;50.004;8.246;2023-04-29T03:47:31;11.50;99.90
10702;DHT22;5402;50.004;8.246;2023-04-29T03:49:57;11.50;99.90
10702;DHT22;5402;50.004;8.246;2023-04-29T03:52:24;11.40;99.90
10702;DHT22;5402;50.004;8.246;2023-04-29T03:54:52;11.40;99.90
10702;DHT22;5402;50.004;8.246;2023-04-29T03:57:19;11.40;99.90
10702;DHT22;5402;50.004;8.246;2023-04-29T03:59:46;11.40;99.90
10702;DHT22;5402;50.004;8.246;2023-04-29T04:02:14;11.40;99.90
10702;DHT22;5402;50.004;8.246;2023-04-29T04:04:41;11.40;99.90
10702;DHT22;5402;50.004;8.246;2023-04-29T04:07:08;11.40;99.90
10702;DHT22;5402;50.004;8.246;2023-04-29T04:09:36;11.40;99.90
10702;DHT22;5402;50.004;8.246;2023-04-29T04:12:05;11.40;99.90
10702;DHT22;5402;50.004;8.246;2023-04-29T04:14:32;11.40;99.90
10702;DHT22;5402;50.004;8.246;2023-04-29T04:16:58;11.40;99.90
10702;DHT22;5402;50.004;8.246;2023-04-29T04:19:25;11.40;99.90
10702;DHT22;5402;50.004;8.246;2023-04-29T04:21:53;11.40;99.90
10702;DHT22;5402;50.004;8.246;2023-04-29T04:24:20;11.50;99.90
10702;DHT22;5402;50.004;8.246;2023-04-29T04:26:47;11.50;99.90
10702;DHT22;5402;50.004;8.246;2023-04-29T04:29:15;11.50;99.90
10702;DHT22;5402;50.004;8.246;2023-04-29T04:31:41;11.50;99.90
10702;DHT22;5402;50.004;8.246;2023-04-29T04:34:08;11.50;99.90
10702;DHT22;5402;50.004;8.246;2023-04-29T04:36:35;11.60;99.90
10702;DHT22;5402;50.004;8.246;2023-04-29T04:39:02;11.60;99.90
10702;DHT22;5402;50.004;8.246;2023-04-29T04:41:30;11.70;99.90
10702;DHT22;5402;50.004;8.246;2023-04-29T04:43:57;11.60;99.90
10702;DHT22;5402;50.004;8.246;2023-04-29T04:46:25;11.50;99.90
10702;DHT22;5402;50.004;8.246;2023-04-29T04:48:52;11.50;99.90
10702;DHT22;5402;50.004;8.246;2023-04-29T04:51:19;11.40;99.90
10702;DHT22;5402;50.004;8.246;2023-04-29T04:53:46;11.30;99.90
10702;DHT22;5402;50.004;8.246;2023-04-29T04:56:13;11.30;99.90
10702;DHT22;5402;50.004;8.246;2023-04-29T04:58:39;11.20;99.90
10702;DHT22;5402;50.004;8.246;2023-04-29T05:01:06;11.10;99.90
10702;DHT22;5402;50.004;8.246;2023-04-29T05:03:34;11.20;99.90
10702;DHT22;5402;50.004;8.246;2023-04-29T05:06:01;11.10;99.90
10702;DHT22;5402;50.004;8.246;2023-04-29T05:08:28;11.20;99.90
10702;DHT22;5402;50.004;8.246;2023-04-29T05:10:54;11.30;99.90
10702;DHT22;5402;50.004;8.246;2023-04-29T05:13:22;11.40;99.90
10702;DHT22;5402;50.004;8.246;2023-04-29T05:15:50;11.50;99.90
10702;DHT22;5402;50.004;8.246;2023-04-29T05:18:16;11.60;99.90
10702;DHT22;5402;50.004;8.246;2023-04-29T05:20:44;11.70;99.90
10702;DHT22;5402;50.004;8.246;2023-04-29T05:23:11;11.80;99.90
10702;DHT22;5402;50.004;8.246;2023-04-29T05:25:38;11.90;99.90
10702;DHT22;5402;50.004;8.246;2023-04-29T05:28:04;12.00;99.90
10702;DHT22;5402;50.004;8.246;2023-04-29T05:30:32;12.00;99.90
10702;DHT22;5402;50.004;8.246;2023-04-29T05:32:59;12.00;99.90
10702;DHT22;5402;50.004;8.246;2023-04-29T05:35:26;12.00;99.90
10702;DHT22;5402;50.004;8.246;2023-04-29T05:37:55;12.10;99.90
10702;DHT22;5402;50.004;8.246;2023-04-29T05:40:22;12.10;99.90
10702;DHT22;5402;50.004;8.246;2023-04-29T05:42:49;12.10;99.90
10702;DHT22;5402;50.004;8.246;2023-04-29T05:45:16;12.20;99.90
10702;DHT22;5402;50.004;8.246;2023-04-29T05:47:43;12.10;99.90
10702;DHT22;5402;50.004;8.246;2023-04-29T05:50:09;11.90;99.90
10702;DHT22;5402;50.004;8.246;2023-04-29T05:52:37;12.00;99.90
10702;DHT22;5402;50.004;8.246;2023-04-29T05:55:05;12.00;99.90
10702;DHT22;5402;50.004;8.246;2023-04-29T05:57:32;12.00;99.90
10702;DHT22;5402;50.004;8.246;2023-04-29T05:59:58;12.00;99.90
10702;DHT22;5402;50.004;8.246;2023-04-29T06:02:25;12.00;99.90
10702;DHT22;5402;50.004;8.246;2023-04-29T06:04:52;12.00;99.90
10702;DHT22;5402;50.004;8.246;2023-04-29T06:07:19;12.00;99.90
10702;DHT22;5402;50.004;8.246;2023-04-29T06:09:45;12.10;99.90
10702;DHT22;5402;50.004;8.246;2023-04-29T06:12:13;12.10;99.90
10702;DHT22;5402;50.004;8.246;2023-04-29T06:14:40;12.20;99.90
10702;DHT22;5402;50.004;8.246;2023-04-29T06:17:07;12.20;99.90
10702;DHT22;5402;50.004;8.246;2023-04-29T06:19:34;12.20;99.90
10702;DHT22;5402;50.004;8.246;2023-04-29T06:22:00;12.30;99.90
10702;DHT22;5402;50.004;8.246;2023-04-29T06:24:28;12.30;99.90
10702;DHT22;5402;50.004;8.246;2023-04-29T06:26:55;12.30;99.90
10702;DHT22;5402;50.004;8.246;2023-04-29T06:29:23;12.30;99.90
10702;DHT22;5402;50.004;8.246;2023-04-29T06:31:50;12.30;99.90
10702;DHT22;5402;50.004;8.246;2023-04-29T06:34:17;12.40;99.90
10702;DHT22;5402;50.004;8.246;2023-04-29T06:36:44;12.30;99.90
10702;DHT22;5402;50.004;8.246;2023-04-29T06:39:11;12.30;99.90
10702;DHT22;5402;50.004;8.246;2023-04-29T06:41:37;12.20;99.90
10702;DHT22;5402;50.004;8.246;2023-04-29T06:44:05;12.20;99.90
10702;DHT22;5402;50.004;8.246;2023-04-29T06:46:33;12.30;99.90
10702;DHT22;5402;50.004;8.246;2023-04-29T06:49:00;12.30;99.90
10702;DHT22;5402;50.004;8.246;2023-04-29T06:51:27;12.20;99.90
10702;DHT22;5402;50.004;8.246;2023-04-29T06:53:53;12.20;99.90
10702;DHT22;5402;50.004;8.246;2023-04-29T06:56:20;12.20;99.90
10702;DHT22;5402;50.004;8.246;2023-04-29T06:58:48;12.20;99.90
10702;DHT22;5402;50.004;8.246;2023-04-29T07:01:14;12.20;99.90
10702;DHT22;5402;50.004;8.246;2023-04-29T07:03:43;12.20;99.90
10702;DHT22;5402;50.004;8.246;2023-04-29T07:06:09;12.20;99.90
10702;DHT22;5402;50.004;8.246;2023-04-29T07:08:37;12.30;99.90
10702;DHT22;5402;50.004;8.246;2023-04-29T07:11:03;12.30;99.90
10702;DHT22;5402;50.004;8.246;2023-04-29T07:13:30;12.30;99.90
10702;DHT22;5402;50.004;8.246;2023-04-29T07:15:57;12.30;99.90
10702;DHT22;5402;50.004;8.246;2023-04-29T07:18:24;12.30;99.90
10702;DHT22;5402;50.004;8.246;2023-04-29T07:20:52;12.30;99.90
10702;DHT22;5402;50.004;8.246;2023-04-29T07:23:20;12.40;99.90
10702;DHT22;5402;50.004;8.246;2023-04-29T07:25:47;12.40;99.90
10702;DHT22;5402;50.004;8.246;2023-04-29T07:28:13;12.40;99.90
10702;DHT22;5402;50.004;8.246;2023-04-29T07:30:40;12.40;99.90
10702;DHT22;5402;50.004;8.246;2023-04-29T07:33:07;12.50;99.90
10702;DHT22;5402;50.004;8.246;2023-04-29T07:35:34;12.50;99.90
10702;DHT22;5402;50.004;8.246;2023-04-29T07:38:02;12.50;99.90
10702;DHT22;5402;50.004;8.246;2023-04-29T07:40:29;12.50;99.90
10702;DHT22;5402;50.004;8.246;2023-04-29T07:42:56;12.40;99.90
10702;DHT22;5402;50.004;8.246;2023-04-29T07:45:23;12.40;99.90
10702;DHT22;5402;50.004;8.246;2023-04-29T07:47:49;12.30;99.90
10702;DHT22;5402;50.004;8.246;2023-04-29T07:50:16;12.40;99.90
10702;DHT22;5402;50.004;8.246;2023-04-29T07:52:43;12.50;99.90
10702;DHT22;5402;50.004;8.246;2023-04-29T07:55:13;12.50;99.90
10702;DHT22;5402;50.004;8.246;2023-04-29T07:57:40;12.40;99.90
10702;DHT22;5402;50.004;8.246;2023-04-29T08:00:08;12.50;99.90
10702;DHT22;5402;50.004;8.246;2023-04-29T08:02:35;12.40;99.90
10702;DHT22;5402;50.004;8.246;2023-04-29T08:05:02;12.30;99.90
10702;DHT22;5402;50.004;8.246;2023-04-29T08:07:28;12.40;99.90
10702;DHT22;5402;50.004;8.246;2023-04-29T08:09:55;12.30;99.90
10702;DHT22;5402;50.004;8.246;2023-04-29T08:12:23;12.30;99.90
10702;DHT22;5402;50.004;8.246;2023-04-29T08:14:50;12.30;99.90
10702;DHT22;5402;50.004;8.246;2023-04-29T08:17:17;12.40;99.90
10702;DHT22;5402;50.004;8.246;2023-04-29T08:19:44;12.40;99.90
10702;DHT22;5402;50.004;8.246;2023-04-29T08:22:11;12.40;99.90
10702;DHT22;5402;50.004;8.246;2023-04-29T08:24:41;12.40;99.90
10702;DHT22;5402;50.004;8.246;2023-04-29T08:27:09;12.40;99.90
10702;DHT22;5402;50.004;8.246;2023-04-29T08:29:37;12.40;99.90
10702;DHT22;5402;50.004;8.246;2023-04-29T08:32:04;12.50;99.90
10702;DHT22;5402;50.004;8.246;2023-04-29T08:34:31;12.50;99.90
10702;DHT22;5402;50.004;8.246;2023-04-29T08:36:58;12.50;99.90
10702;DHT22;5402;50.004;8.246;2023-04-29T08:39:25;12.50;99.90
10702;DHT22;5402;50.004;8.246;2023-04-29T08:41:53;12.60;99.90
10702;DHT22;5402;50.004;8.246;2023-04-29T08:44:22;12.50;99.90
10702;DHT22;5402;50.004;8.246;2023-04-29T08:46:51;12.40;99.90
10702;DHT22;5402;50.004;8.246;2023-04-29T08:49:18;12.40;99.90
10702;DHT22;5402;50.004;8.246;2023-04-29T08:51:47;12.50;99.90
10702;DHT22;5402;50.004;8.246;2023-04-29T08:54:16;12.40;99.90
10702;DHT22;5402;50.004;8.246;2023-04-29T08:56:44;12.30;99.90
10702;DHT22;5402;50.004;8.246;2023-04-29T08:59:13;12.30;99.90
10702;DHT22;5402;50.004;8.246;2023-04-29T09:01:42;12.30;99.90
10702;DHT22;5402;50.004;8.246;2023-04-29T09:04:14;12.20;99.90
10702;DHT22;5402;50.004;8.246;2023-04-29T09:06:47;12.10;99.90
10702;DHT22;5402;50.004;8.246;2023-04-29T09:09:14;12.10;99.90
10702;DHT22;5402;50.004;8.246;2023-04-29T09:11:41;12.10;99.90
10702;DHT22;5402;50.004;8.246;2023-04-29T09:14:08;12.00;99.90
10702;DHT22;5402;50.004;8.246;2023-04-29T09:16:35;12.00;99.90
10702;DHT22;5402;50.004;8.246;2023-04-29T09:19:03;12.00;99.90
10702;DHT22;5402;50.004;8.246;2023-04-29T09:21:31;12.00;99.90
10702;DHT22;5402;50.004;8.246;2023-04-29T09:23:59;12.10;99.90
10702;DHT22;5402;50.004;8.246;2023-04-29T09:26:26;12.20;99.90
10702;DHT22;5402;50.004;8.246;2023-04-29T09:29:06;12.20;99.90
10702;DHT22;5402;50.004;8.246;2023-04-29T09:31:35;12.30;99.90
10702;DHT22;5402;50.004;8.246;2023-04-29T09:34:03;12.40;99.90
10702;DHT22;5402;50.004;8.246;2023-04-29T09:36:39;12.50;99.90
10702;DHT22;5402;50.004;8.246;2023-04-29T09:39:07;12.70;99.90
10702;DHT22;5402;50.004;8.246;2023-04-29T09:41:38;12.50;99.90
10702;DHT22;5402;50.004;8.246;2023-04-29T09:44:06;12.60;99.90
10702;DHT22;5402;50.004;8.246;2023-04-29T09:46:33;12.60;99.90
10702;DHT22;5402;50.004;8.246;2023-04-29T09:49:01;12.80;99.90
10702;DHT22;5402;50.004;8.246;2023-04-29T09:51:29;12.90;99.90
10702;DHT22;5402;50.004;8.246;2023-04-29T09:53:58;13.00;99.90
10702;DHT22;5402;50.004;8.246;2023-04-29T09:56:26;13.00;99.90
10702;DHT22;5402;50.004;8.246;2023-04-29T09:58:55;13.00;99.90
10702;DHT22;5402;50.004;8.246;2023-04-29T10:01:23;13.20;99.90
10702;DHT22;5402;50.004;8.246;2023-04-29T10:03:53;13.10;99.90
10702;DHT22;5402;50.004;8.246;2023-04-29T10:06:21;13.10;99.90
10702;DHT22;5402;50.004;8.246;2023-04-29T10:08:48;13.20;99.90
10702;DHT22;5402;50.004;8.246;2023-04-29T10:11:16;13.20;99.90
10702;DHT22;5402;50.004;8.246;2023-04-29T10:13:43;13.10;99.90
10702;DHT22;5402;50.004;8.246;2023-04-29T10:16:18;13.20;99.90
10702;DHT22;5402;50.004;8.246;2023-04-29T10:18:53;13.00;99.90
10702;DHT22;5402;50.004;8.246;2023-04-29T10:21:21;12.90;99.90
10702;DHT22;5402;50.004;8.246;2023-04-29T10:23:50;12.90;99.90
10702;DHT22;5402;50.004;8.246;2023-04-29T10:26:20;13.00;99.90
10702;DHT22;5402;50.004;8.246;2023-04-29T10:28:50;13.00;99.90
10702;DHT22;5402;50.004;8.246;2023-04-29T10:31:17;13.00;99.90
10702;DHT22;5402;50.004;8.246;2023-04-29T10:33:46;13.00;99.90
10702;DHT22;5402;50.004;8.246;2023-04-29T10:36:13;13.00;99.90
10702;DHT22;5402;50.004;8.246;2023-04-29T10:38:43;13.00;99.90
10702;DHT22;5402;50.004;8.246;2023-04-29T10:41:18;13.00;99.90
10702;DHT22;5402;50.004;8.246;2023-04-29T10:43:47;13.00;99.90
10702;DHT22;5402;50.004;8.246;2023-04-29T10:46:18;13.00;99.90
10702;DHT22;5402;50.004;8.246;2023-04-29T10:48:45;13.20;99.90
10702;DHT22;5402;50.004;8.246;2023-04-29T10:51:12;13.20;99.90
10702;DHT22;5402;50.004;8.246;2023-04-29T10:53:57;13.20;99.90
10702;DHT22;5402;50.004;8.246;2023-04-29T10:56:34;13.30;99.90
10702;DHT22;5402;50.004;8.246;2023-04-29T10:59:02;13.20;99.90
10702;DHT22;5402;50.004;8.246;2023-04-29T11:01:43;13.20;99.90
10702;DHT22;5402;50.004;8.246;2023-04-29T11:04:10;13.40;99.90
10702;DHT22;5402;50.004;8.246;2023-04-29T11:06:40;13.50;99.90
10702;DHT22;5402;50.004;8.246;2023-04-29T11:09:09;13.60;99.90
10702;DHT22;5402;50.004;8.246;2023-04-29T11:11:45;13.80;99.90
10702;DHT22;5402;50.004;8.246;2023-04-29T11:14:20;13.70;99.90
10702;DHT22;5402;50.004;8.246;2023-04-29T11:16:49;13.80;99.90
10702;DHT22;5402;50.004;8.246;2023-04-29T11:19:16;13.80;99.90
10702;DHT22;5402;50.004;8.246;2023-04-29T11:21:44;13.60;99.90
10702;DHT22;5402;50.004;8.246;2023-04-29T11:24:12;13.50;99.90
10702;DHT22;5402;50.004;8.246;2023-04-29T11:26:42;13.50;99.90
10702;DHT22;5402;50.004;8.246;2023-04-29T11:29:10;13.50;99.90
10702;DHT22;5402;50.004;8.246;2023-04-29T11:31:38;13.40;99.90
10702;DHT22;5402;50.004;8.246;2023-04-29T11:34:05;13.50;99.90
10702;DHT22;5402;50.004;8.246;2023-04-29T11:36:33;13.50;99.90
10702;DHT22;5402;50.004;8.246;2023-04-29T11:39:01;13.70;99.90
10702;DHT22;5402;50.004;8.246;2023-04-29T11:41:28;14.00;99.90
10702;DHT22;5402;50.004;8.246;2023-04-29T11:43:56;14.10;99.90
10702;DHT22;5402;50.004;8.246;2023-04-29T11:46:23;14.30;99.90
10702;DHT22;5402;50.004;8.246;2023-04-29T11:48:52;14.50;99.90
10702;DHT22;5402;50.004;8.246;2023-04-29T11:51:18;14.70;99.90
10702;DHT22;5402;50.004;8.246;2023-04-29T11:53:46;14.90;99.90
10702;DHT22;5402;50.004;8.246;2023-04-29T11:56:13;15.40;99.90
10702;DHT22;5402;50.004;8.246;2023-04-29T11:58:41;15.70;99.90
10702;DHT22;5402;50.004;8.246;2023-04-29T12:01:09;15.60;99.90
10702;DHT22;5402;50.004;8.246;2023-04-29T12:03:36;15.70;99.90
10702;DHT22;5402;50.004;8.246;2023-04-29T12:06:04;16.00;99.90
10702;DHT22;5402;50.004;8.246;2023-04-29T12:08:30;15.90;99.90
10702;DHT22;5402;50.004;8.246;2023-04-29T12:10:59;15.90;99.90
10702;DHT22;5402;50.004;8.246;2023-04-29T12:13:28;16.30;99.90
10702;DHT22;5402;50.004;8.246;2023-04-29T12:15:55;16.50;99.90
10702;DHT22;5402;50.004;8.246;2023-04-29T12:18:22;16.30;99.90
10702;DHT22;5402;50.004;8.246;2023-04-29T12:20:50;16.10;99.90
10702;DHT22;5402;50.004;8.246;2023-04-29T12:23:19;15.90;99.90
10702;DHT22;5402;50.004;8.246;2023-04-29T12:25:49;15.80;99.90
10702;DHT22;5402;50.004;8.246;2023-04-29T12:28:17;16.00;99.90
10702;DHT22;5402;50.004;8.246;2023-04-29T12:30:44;16.10;99.90
10702;DHT22;5402;50.004;8.246;2023-04-29T12:33:15;16.20;99.90
10702;DHT22;5402;50.004;8.246;2023-04-29T12:35:43;16.70;99.90
10702;DHT22;5402;50.004;8.246;2023-04-29T12:38:10;17.20;99.90
10702;DHT22;5402;50.004;8.246;2023-04-29T12:40:40;17.60;99.90
10702;DHT22;5402;50.004;8.246;2023-04-29T12:43:07;17.10;99.90
10702;DHT22;5402;50.004;8.246;2023-04-29T12:45:34;17.00;99.90
10702;DHT22;5402;50.004;8.246;2023-04-29T12:48:01;16.80;99.90
10702;DHT22;5402;50.004;8.246;2023-04-29T12:50:32;16.30;99.90
10702;DHT22;5402;50.004;8.246;2023-04-29T12:53:00;16.20;99.90
10702;DHT22;5402;50.004;8.246;2023-04-29T12:55:26;15.70;99.90
10702;DHT22;5402;50.004;8.246;2023-04-29T12:57:55;15.70;99.90
10702;DHT22;5402;50.004;8.246;2023-04-29T13:00:22;15.70;99.90
10702;DHT22;5402;50.004;8.246;2023-04-29T13:02:49;15.60;99.90
10702;DHT22;5402;50.004;8.246;2023-04-29T13:05:16;15.50;99.90
10702;DHT22;5402;50.004;8.246;2023-04-29T13:07:43;15.60;99.90
10702;DHT22;5402;50.004;8.246;2023-04-29T13:10:10;15.60;99.90
10702;DHT22;5402;50.004;8.246;2023-04-29T13:12:39;15.50;99.90
10702;DHT22;5402;50.004;8.246;2023-04-29T13:15:09;15.50;99.90
10702;DHT22;5402;50.004;8.246;2023-04-29T13:17:36;15.80;99.90
10702;DHT22;5402;50.004;8.246;2023-04-29T13:20:04;15.90;99.90
10702;DHT22;5402;50.004;8.246;2023-04-29T13:22:31;15.70;99.90
10702;DHT22;5402;50.004;8.246;2023-04-29T13:24:57;15.70;99.90
10702;DHT22;5402;50.004;8.246;2023-04-29T13:27:24;15.70;99.90
10702;DHT22;5402;50.004;8.246;2023-04-29T13:29:51;15.60;99.90
10702;DHT22;5402;50.004;8.246;2023-04-29T13:32:19;15.90;99.90
10702;DHT22;5402;50.004;8.246;2023-04-29T13:34:49;16.00;99.90
10702;DHT22;5402;50.004;8.246;2023-04-29T13:37:16;16.10;99.90
10702;DHT22;5402;50.004;8.246;2023-04-29T13:39:42;16.20;99.90
10702;DHT22;5402;50.004;8.246;2023-04-29T13:42:09;16.30;99.90
10702;DHT22;5402;50.004;8.246;2023-04-29T13:44:36;16.40;99.90
10702;DHT22;5402;50.004;8.246;2023-04-29T13:47:03;16.30;99.90
10702;DHT22;5402;50.004;8.246;2023-04-29T13:49:32;16.30;99.90
10702;DHT22;5402;50.004;8.246;2023-04-29T13:51:58;15.90;99.90
10702;DHT22;5402;50.004;8.246;2023-04-29T13:54:25;16.00;99.90
10702;DHT22;5402;50.004;8.246;2023-04-29T13:56:52;16.00;99.90
10702;DHT22;5402;50.004;8.246;2023-04-29T13:59:19;16.10;99.90
10702;DHT22;5402;50.004;8.246;2023-04-29T14:01:45;16.00;99.90
10702;DHT22;5402;50.004;8.246;2023-04-29T14:04:13;16.20;99.90
10702;DHT22;5402;50.004;8.246;2023-04-29T14:06:41;16.30;99.90
10702;DHT22;5402;50.004;8.246;2023-04-29T14:09:08;16.40;99.90
10702;DHT22;5402;50.004;8.246;2023-04-29T14:11:35;16.40;99.90
10702;DHT22;5402;50.004;8.246;2023-04-29T14:14:01;16.00;99.90
10702;DHT22;5402;50.004;8.246;2023-04-29T14:16:28;16.00;99.90
10702;DHT22;5402;50.004;8.246;2023-04-29T14:18:55;15.70;99.90
10702;DHT22;5402;50.004;8.246;2023-04-29T14:21:22;15.90;99.90
10702;DHT22;5402;50.004;8.246;2023-04-29T14:23:52;15.90;99.90
10702;DHT22;5402;50.004;8.246;2023-04-29T14:26:18;15.80;99.90
10702;DHT22;5402;50.004;8.246;2023-04-29T14:28:45;16.00;99.90
10702;DHT22;5402;50.004;8.246;2023-04-29T14:31:12;16.00;99.90
10702;DHT22;5402;50.004;8.246;2023-04-29T14:33:39;16.00;99.90
10702;DHT22;5402;50.004;8.246;2023-04-29T14:36:06;16.20;99.90
10702;DHT22;5402;50.004;8.246;2023-04-29T14:38:33;16.10;99.90
10702;DHT22;5402;50.004;8.246;2023-04-29T14:41:01;15.90;99.90
10702;DHT22;5402;50.004;8.246;2023-04-29T14:43:28;16.00;99.90
10702;DHT22;5402;50.004;8.246;2023-04-29T14:45:55;16.30;99.90
10702;DHT22;5402;50.004;8.246;2023-04-29T14:48:21;16.30;99.90
10702;DHT22;5402;50.004;8.246;2023-04-29T14:50:48;16.50;99.90
10702;DHT22;5402;50.004;8.246;2023-04-29T14:53:15;16.40;99.90
10702;DHT22;5402;50.004;8.246;2023-04-29T14:55:42;16.10;99.90
10702;DHT22;5402;50.004;8.246;2023-04-29T14:58:10;16.10;99.90
10702;DHT22;5402;50.004;8.246;2023-04-29T15:00:37;16.20;99.90
10702;DHT22;5402;50.004;8.246;2023-04-29T15:03:03;16.00;99.90
10702;DHT22;5402;50.004;8.246;2023-04-29T15:05:30;15.90;99.90
10702;DHT22;5402;50.004;8.246;2023-04-29T15:07:57;16.00;99.90
10702;DHT22;5402;50.004;8.246;2023-04-29T15:10:25;15.90;99.90
10702;DHT22;5402;50.004;8.246;2023-04-29T15:12:52;15.90;99.90
10702;DHT22;5402;50.004;8.246;2023-04-29T15:15:21;15.80;99.90
10702;DHT22;5402;50.004;8.246;2023-04-29T15:17:48;16.00;99.90
10702;DHT22;5402;50.004;8.246;2023-04-29T15:20:15;16.00;99.90
10702;DHT22;5402;50.004;8.246;2023-04-29T15:22:42;16.00;99.90
10702;DHT22;5402;50.004;8.246;2023-04-29T15:25:09;15.70;99.90
10702;DHT22;5402;50.004;8.246;2023-04-29T15:27:36;15.20;99.90
10702;DHT22;5402;50.004;8.246;2023-04-29T15:30:03;15.40;99.90
10702;DHT22;5402;50.004;8.246;2023-04-29T15:32:32;15.40;99.90
10702;DHT22;5402;50.004;8.246;2023-04-29T15:34:59;15.30;99.90
10702;DHT22;5402;50.004;8.246;2023-04-29T15:37:26;15.40;99.90
10702;DHT22;5402;50.004;8.246;2023-04-29T15:39:53;15.20;99.90
10702;DHT22;5402;50.004;8.246;2023-04-29T15:42:20;15.30;99.90
10702;DHT22;5402;50.004;8.246;2023-04-29T15:44:47;15.10;99.90
10702;DHT22;5402;50.004;8.246;2023-04-29T15:47:14;15.20;99.90
10702;DHT22;5402;50.004;8.246;2023-04-29T15:49:42;15.40;99.90